sensor_id;sensor_type;location;lat;lon;timestamp;temperature;humidity
75161;DHT22;67232;50.096;8.716;2023-04-03T00:01:02;8.70;65.50
75161;DHT22;67232;50.096;8.716;2023-04-03T00:03:28;8.80;65.50
75161;DHT22;67232;50.096;8.716;2023-04-03T00:05:54;8.70;65.90
75161;DHT22;67232;50.096;8.716;2023-04-03T00:08:20;8.70;65.80
75161;DHT22;67232;50.096;8.716;2023-04-03T00:10:45;8.60;65.90
75161;DHT22;67232;50.096;8.716;2023-04-03T00:13:11;8.60;66.10
75161;DHT22;67232;50.096;8.716;2023-04-03T00:15:40;8.60;66.30
75161;DHT22;67232;50.096;8.716;2023-04-03T00:18:06;8.60;66.30
75161;DHT22;67232;50.096;8.716;2023-04-03T00:20:32;8.70;66.00
75161;DHT22;67232;50.096;8.716;2023-04-03T00:23:01;8.70;66.10
75161;DHT22;67232;50.096;8.716;2023-04-03T00:25:27;8.80;66.00
75161;DHT22;67232;50.096;8.716;2023-04-03T00:27:53;8.70;66.30
75161;DHT22;67232;50.096;8.716;2023-04-03T00:30:20;8.70;66.60
75161;DHT22;67232;50.096;8.716;2023-04-03T00:32:48;8.80;66.30
75161;DHT22;67232;50.096;8.716;2023-04-03T00:35:14;8.70;66.20
75161;DHT22;67232;50.096;8.716;2023-04-03T00:37:41;8.70;66.50
75161;DHT22;67232;50.096;8.716;2023-04-03T00:40:08;8.60;66.50
75161;DHT22;67232;50.096;8.716;2023-04-03T00:42:34;8.60;66.50
75161;DHT22;67232;50.096;8.716;2023-04-03T00:47:27;8.60;66.70
75161;DHT22;67232;50.096;8.716;2023-04-03T00:49:53;8.40;66.90
75161;DHT22;67232;50.096;8.716;2023-04-03T00:52:28;8.60;66.90
75161;DHT22;67232;50.096;8.716;2023-04-03T00:54:57;8.60;66.70
75161;DHT22;67232;50.096;8.716;2023-04-03T00:57:25;8.70;66.50
75161;DHT22;67232;50.096;8.716;2023-04-03T00:59:59;8.50;66.90
75161;DHT22;67232;50.096;8.716;2023-04-03T01:02:27;8.70;66.80
75161;DHT22;67232;50.096;8.716;2023-04-03T01:04:52;8.70;66.60
75161;DHT22;67232;50.096;8.716;2023-04-03T01:07:22;8.50;67.10
75161;DHT22;67232;50.096;8.716;2023-04-03T01:09:53;8.60;66.70
75161;DHT22;67232;50.096;8.716;2023-04-03T01:12:22;8.60;66.60
75161;DHT22;67232;50.096;8.716;2023-04-03T01:14:53;8.60;67.00
75161;DHT22;67232;50.096;8.716;2023-04-03T01:25:41;8.50;67.10
75161;DHT22;67232;50.096;8.716;2023-04-03T01:28:14;8.50;67.30
75161;DHT22;67232;50.096;8.716;2023-04-03T01:33:45;8.50;67.60
75161;DHT22;67232;50.096;8.716;2023-04-03T01:36:20;8.40;68.00
75161;DHT22;67232;50.096;8.716;2023-04-03T01:38:46;8.50;67.50
75161;DHT22;67232;50.096;8.716;2023-04-03T01:41:12;8.40;67.60
75161;DHT22;67232;50.096;8.716;2023-04-03T01:43:38;8.30;67.60
75161;DHT22;67232;50.096;8.716;2023-04-03T01:46:05;8.40;67.30
75161;DHT22;67232;50.096;8.716;2023-04-03T01:48:33;8.50;67.30
75161;DHT22;67232;50.096;8.716;2023-04-03T01:51:02;8.20;67.70
75161;DHT22;67232;50.096;8.716;2023-04-03T01:53:29;8.30;68.00
75161;DHT22;67232;50.096;8.716;2023-04-03T01:55:55;8.10;68.50
75161;DHT22;67232;50.096;8.716;2023-04-03T01:58:21;7.80;69.40
75161;DHT22;67232;50.096;8.716;2023-04-03T02:00:46;8.00;69.00
75161;DHT22;67232;50.096;8.716;2023-04-03T02:03:15;8.20;68.80
75161;DHT22;67232;50.096;8.716;2023-04-03T02:05:43;8.20;68.80
75161;DHT22;67232;50.096;8.716;2023-04-03T02:08:08;8.20;68.60
75161;DHT22;67232;50.096;8.716;2023-04-03T02:10:34;8.30;68.40
75161;DHT22;67232;50.096;8.716;2023-04-03T02:13:04;8.50;68.50
75161;DHT22;67232;50.096;8.716;2023-04-03T02:15:30;8.40;68.40
75161;DHT22;67232;50.096;8.716;2023-04-03T02:17:58;8.50;68.40
75161;DHT22;67232;50.096;8.716;2023-04-03T02:20:23;8.50;68.60
75161;DHT22;67232;50.096;8.716;2023-04-03T02:22:49;8.60;68.40
75161;DHT22;67232;50.096;8.716;2023-04-03T02:25:15;8.60;68.30
75161;DHT22;67232;50.096;8.716;2023-04-03T02:27:40;8.50;68.30
75161;DHT22;67232;50.096;8.716;2023-04-03T02:30:06;8.50;68.40
75161;DHT22;67232;50.096;8.716;2023-04-03T02:32:34;8.60;68.50
75161;DHT22;67232;50.096;8.716;2023-04-03T02:35:00;8.50;68.60
75161;DHT22;67232;50.096;8.716;2023-04-03T02:37:25;8.40;68.70
75161;DHT22;67232;50.096;8.716;2023-04-03T02:39:51;8.50;68.70
75161;DHT22;67232;50.096;8.716;2023-04-03T02:42:17;8.60;68.70
75161;DHT22;67232;50.096;8.716;2023-04-03T02:44:47;8.60;68.70
75161;DHT22;67232;50.096;8.716;2023-04-03T02:47:12;8.60;68.70
75161;DHT22;67232;50.096;8.716;2023-04-03T02:49:38;8.70;68.70
75161;DHT22;67232;50.096;8.716;2023-04-03T02:52:06;8.50;68.70
75161;DHT22;67232;50.096;8.716;2023-04-03T02:54:34;8.50;69.20
75161;DHT22;67232;50.096;8.716;2023-04-03T02:56:59;8.50;69.40
75161;DHT22;67232;50.096;8.716;2023-04-03T02:59:27;8.40;69.40
75161;DHT22;67232;50.096;8.716;2023-04-03T03:01:55;8.40;69.30
75161;DHT22;67232;50.096;8.716;2023-04-03T03:04:21;8.40;68.80
75161;DHT22;67232;50.096;8.716;2023-04-03T03:06:46;8.20;68.50
75161;DHT22;67232;50.096;8.716;2023-04-03T03:09:12;8.20;68.20
75161;DHT22;67232;50.096;8.716;2023-04-03T03:11:39;8.30;67.80
75161;DHT22;67232;50.096;8.716;2023-04-03T03:14:04;8.10;68.20
75161;DHT22;67232;50.096;8.716;2023-04-03T03:16:32;8.10;68.20
75161;DHT22;67232;50.096;8.716;2023-04-03T03:18:58;8.30;67.90
75161;DHT22;67232;50.096;8.716;2023-04-03T03:21:26;8.20;67.40
75161;DHT22;67232;50.096;8.716;2023-04-03T03:23:51;8.10;67.00
75161;DHT22;67232;50.096;8.716;2023-04-03T03:26:17;8.20;66.70
75161;DHT22;67232;50.096;8.716;2023-04-03T03:28:42;8.10;66.30
75161;DHT22;67232;50.096;8.716;2023-04-03T03:31:10;7.70;66.80
75161;DHT22;67232;50.096;8.716;2023-04-03T03:33:36;7.80;66.20
75161;DHT22;67232;50.096;8.716;2023-04-03T03:36:02;7.70;66.50
75161;DHT22;67232;50.096;8.716;2023-04-03T03:38:30;7.80;66.40
75161;DHT22;67232;50.096;8.716;2023-04-03T03:40:55;7.90;66.10
75161;DHT22;67232;50.096;8.716;2023-04-03T03:43:23;7.80;65.80
75161;DHT22;67232;50.096;8.716;2023-04-03T03:45:52;7.60;66.50
75161;DHT22;67232;50.096;8.716;2023-04-03T03:48:19;7.60;66.40
75161;DHT22;67232;50.096;8.716;2023-04-03T03:50:45;7.70;66.40
75161;DHT22;67232;50.096;8.716;2023-04-03T03:53:11;7.70;66.30
75161;DHT22;67232;50.096;8.716;2023-04-03T03:55:36;7.60;66.30
75161;DHT22;67232;50.096;8.716;2023-04-03T03:58:02;7.50;66.80
75161;DHT22;67232;50.096;8.716;2023-04-03T04:00:28;7.60;66.60
75161;DHT22;67232;50.096;8.716;2023-04-03T04:02:54;7.60;66.50
75161;DHT22;67232;50.096;8.716;2023-04-03T04:05:22;7.40;66.80
75161;DHT22;67232;50.096;8.716;2023-04-03T04:07:48;7.20;66.90
75161;DHT22;67232;50.096;8.716;2023-04-03T04:10:16;7.20;67.10
75161;DHT22;67232;50.096;8.716;2023-04-03T04:12:44;7.20;67.00
75161;DHT22;67232;50.096;8.716;2023-04-03T04:15:10;7.00;66.90
75161;DHT22;67232;50.096;8.716;2023-04-03T04:17:36;7.20;66.90
75161;DHT22;67232;50.096;8.716;2023-04-03T04:20:03;7.30;66.90
75161;DHT22;67232;50.096;8.716;2023-04-03T04:22:32;7.40;66.60
75161;DHT22;67232;50.096;8.716;2023-04-03T04:24:58;7.50;66.70
75161;DHT22;67232;50.096;8.716;2023-04-03T04:27:26;7.40;67.10
75161;DHT22;67232;50.096;8.716;2023-04-03T04:29:51;7.20;66.40
75161;DHT22;67232;50.096;8.716;2023-04-03T04:32:19;7.20;66.90
75161;DHT22;67232;50.096;8.716;2023-04-03T04:34:45;7.10;66.90
75161;DHT22;67232;50.096;8.716;2023-04-03T04:37:11;7.00;67.00
75161;DHT22;67232;50.096;8.716;2023-04-03T04:39:36;7.10;67.00
75161;DHT22;67232;50.096;8.716;2023-04-03T04:42:02;7.20;66.80
75161;DHT22;67232;50.096;8.716;2023-04-03T04:44:27;7.20;66.80
75161;DHT22;67232;50.096;8.716;2023-04-03T04:46:53;7.30;66.70
75161;DHT22;67232;50.096;8.716;2023-04-03T04:49:19;7.30;66.90
75161;DHT22;67232;50.096;8.716;2023-04-03T04:51:44;7.20;66.90
75161;DHT22;67232;50.096;8.716;2023-04-03T04:54:10;7.10;66.60
75161;DHT22;67232;50.096;8.716;2023-04-03T04:56:38;7.10;66.70
75161;DHT22;67232;50.096;8.716;2023-04-03T04:59:03;7.00;66.90
75161;DHT22;67232;50.096;8.716;2023-04-03T05:01:29;6.90;67.00
75161;DHT22;67232;50.096;8.716;2023-04-03T05:03:57;6.90;67.10
75161;DHT22;67232;50.096;8.716;2023-04-03T05:06:27;6.70;67.20
75161;DHT22;67232;50.096;8.716;2023-04-03T05:08:55;6.60;68.00
75161;DHT22;67232;50.096;8.716;2023-04-03T05:11:21;6.90;67.50
75161;DHT22;67232;50.096;8.716;2023-04-03T05:13:47;6.80;67.30
75161;DHT22;67232;50.096;8.716;2023-04-03T05:16:12;6.60;68.10
75161;DHT22;67232;50.096;8.716;2023-04-03T05:18:40;6.70;68.10
75161;DHT22;67232;50.096;8.716;2023-04-03T05:21:08;6.80;68.50
75161;DHT22;67232;50.096;8.716;2023-04-03T05:23:36;6.90;67.90
75161;DHT22;67232;50.096;8.716;2023-04-03T05:26:02;7.00;67.60
75161;DHT22;67232;50.096;8.716;2023-04-03T05:28:27;6.60;68.20
75161;DHT22;67232;50.096;8.716;2023-04-03T05:30:55;6.70;68.00
75161;DHT22;67232;50.096;8.716;2023-04-03T05:33:23;6.80;68.00
75161;DHT22;67232;50.096;8.716;2023-04-03T05:35:49;7.00;68.20
75161;DHT22;67232;50.096;8.716;2023-04-03T05:38:15;6.80;67.70
75161;DHT22;67232;50.096;8.716;2023-04-03T05:40:40;6.80;67.80
75161;DHT22;67232;50.096;8.716;2023-04-03T05:43:06;6.90;67.40
75161;DHT22;67232;50.096;8.716;2023-04-03T05:45:32;6.90;67.40
75161;DHT22;67232;50.096;8.716;2023-04-03T05:47:57;6.80;67.80
75161;DHT22;67232;50.096;8.716;2023-04-03T05:50:23;6.70;67.80
75161;DHT22;67232;50.096;8.716;2023-04-03T05:52:49;6.70;68.10
75161;DHT22;67232;50.096;8.716;2023-04-03T05:55:16;6.70;68.00
75161;DHT22;67232;50.096;8.716;2023-04-03T05:57:44;6.80;67.70
75161;DHT22;67232;50.096;8.716;2023-04-03T06:00:13;6.50;68.40
75161;DHT22;67232;50.096;8.716;2023-04-03T06:02:41;6.50;68.10
75161;DHT22;67232;50.096;8.716;2023-04-03T06:05:09;6.40;68.30
75161;DHT22;67232;50.096;8.716;2023-04-03T06:07:38;6.60;68.70
75161;DHT22;67232;50.096;8.716;2023-04-03T06:10:07;6.80;68.00
75161;DHT22;67232;50.096;8.716;2023-04-03T06:12:32;6.80;68.00
75161;DHT22;67232;50.096;8.716;2023-04-03T06:15:03;6.40;68.50
75161;DHT22;67232;50.096;8.716;2023-04-03T06:17:30;6.40;68.60
75161;DHT22;67232;50.096;8.716;2023-04-03T06:19:58;6.70;68.50
75161;DHT22;67232;50.096;8.716;2023-04-03T06:22:24;6.40;68.50
75161;DHT22;67232;50.096;8.716;2023-04-03T06:24:51;6.70;68.30
75161;DHT22;67232;50.096;8.716;2023-04-03T06:27:16;6.60;68.40
75161;DHT22;67232;50.096;8.716;2023-04-03T06:29:42;6.60;68.90
75161;DHT22;67232;50.096;8.716;2023-04-03T06:32:10;6.60;68.30
75161;DHT22;67232;50.096;8.716;2023-04-03T06:34:36;6.80;67.80
75161;DHT22;67232;50.096;8.716;2023-04-03T06:37:03;6.80;67.30
75161;DHT22;67232;50.096;8.716;2023-04-03T06:39:29;6.80;67.60
75161;DHT22;67232;50.096;8.716;2023-04-03T06:41:59;7.00;67.70
75161;DHT22;67232;50.096;8.716;2023-04-03T06:44:24;7.10;67.30
75161;DHT22;67232;50.096;8.716;2023-04-03T06:46:52;7.10;67.10
75161;DHT22;67232;50.096;8.716;2023-04-03T06:49:19;7.20;67.50
75161;DHT22;67232;50.096;8.716;2023-04-03T06:51:47;7.60;67.30
75161;DHT22;67232;50.096;8.716;2023-04-03T06:54:15;7.50;66.70
75161;DHT22;67232;50.096;8.716;2023-04-03T06:56:40;7.70;66.70
75161;DHT22;67232;50.096;8.716;2023-04-03T06:59:06;7.70;66.40
75161;DHT22;67232;50.096;8.716;2023-04-03T07:01:31;7.70;66.20
75161;DHT22;67232;50.096;8.716;2023-04-03T07:03:57;7.80;66.20
75161;DHT22;67232;50.096;8.716;2023-04-03T07:06:23;7.50;65.70
75161;DHT22;67232;50.096;8.716;2023-04-03T07:08:54;7.60;66.60
75161;DHT22;67232;50.096;8.716;2023-04-03T07:11:20;7.80;65.80
75161;DHT22;67232;50.096;8.716;2023-04-03T07:13:46;7.90;65.90
75161;DHT22;67232;50.096;8.716;2023-04-03T07:16:11;7.80;65.20
75161;DHT22;67232;50.096;8.716;2023-04-03T07:18:39;7.90;65.20
75161;DHT22;67232;50.096;8.716;2023-04-03T07:21:07;8.20;64.60
75161;DHT22;67232;50.096;8.716;2023-04-03T07:23:33;8.20;64.50
75161;DHT22;67232;50.096;8.716;2023-04-03T07:25:59;8.30;63.80
75161;DHT22;67232;50.096;8.716;2023-04-03T07:28:24;8.40;63.60
75161;DHT22;67232;50.096;8.716;2023-04-03T07:31:00;8.50;63.20
75161;DHT22;67232;50.096;8.716;2023-04-03T07:33:26;8.60;63.20
75161;DHT22;67232;50.096;8.716;2023-04-03T07:35:54;8.70;63.30
75161;DHT22;67232;50.096;8.716;2023-04-03T07:38:20;8.70;63.30
75161;DHT22;67232;50.096;8.716;2023-04-03T07:40:49;8.60;63.30
75161;DHT22;67232;50.096;8.716;2023-04-03T07:43:16;8.20;63.20
75161;DHT22;67232;50.096;8.716;2023-04-03T07:45:42;8.40;63.70
75161;DHT22;67232;50.096;8.716;2023-04-03T07:48:09;8.50;62.60
75161;DHT22;67232;50.096;8.716;2023-04-03T07:50:40;8.60;62.40
75161;DHT22;67232;50.096;8.716;2023-04-03T07:53:05;8.60;62.70
75161;DHT22;67232;50.096;8.716;2023-04-03T07:55:32;8.80;62.60
75161;DHT22;67232;50.096;8.716;2023-04-03T07:57:57;8.90;62.30
75161;DHT22;67232;50.096;8.716;2023-04-03T08:00:25;8.80;61.90
75161;DHT22;67232;50.096;8.716;2023-04-03T08:02:51;8.70;62.70
75161;DHT22;67232;50.096;8.716;2023-04-03T08:05:20;9.00;62.00
75161;DHT22;67232;50.096;8.716;2023-04-03T08:07:47;9.40;61.70
75161;DHT22;67232;50.096;8.716;2023-04-03T08:10:14;9.30;60.90
75161;DHT22;67232;50.096;8.716;2023-04-03T08:12:40;9.00;60.60
75161;DHT22;67232;50.096;8.716;2023-04-03T08:15:06;9.30;61.40
75161;DHT22;67232;50.096;8.716;2023-04-03T08:17:35;9.60;60.30
75161;DHT22;67232;50.096;8.716;2023-04-03T08:20:01;10.00;59.90
75161;DHT22;67232;50.096;8.716;2023-04-03T08:22:26;10.30;59.20
75161;DHT22;67232;50.096;8.716;2023-04-03T08:24:52;10.50;58.40
75161;DHT22;67232;50.096;8.716;2023-04-03T08:27:20;10.70;58.30
75161;DHT22;67232;50.096;8.716;2023-04-03T08:29:48;10.70;58.80
75161;DHT22;67232;50.096;8.716;2023-04-03T08:32:13;11.00;57.20
75161;DHT22;67232;50.096;8.716;2023-04-03T08:34:43;10.70;57.20
75161;DHT22;67232;50.096;8.716;2023-04-03T08:37:09;10.50;58.00
75161;DHT22;67232;50.096;8.716;2023-04-03T08:39:37;11.00;57.30
75161;DHT22;67232;50.096;8.716;2023-04-03T08:42:16;11.10;56.50
75161;DHT22;67232;50.096;8.716;2023-04-03T08:44:46;11.70;54.90
75161;DHT22;67232;50.096;8.716;2023-04-03T08:49:56;11.90;56.20
75161;DHT22;67232;50.096;8.716;2023-04-03T08:54:57;12.30;55.90
75161;DHT22;67232;50.096;8.716;2023-04-03T08:57:38;12.30;55.00
75161;DHT22;67232;50.096;8.716;2023-04-03T09:02:46;12.30;54.00
75161;DHT22;67232;50.096;8.716;2023-04-03T09:08:04;11.90;53.90
75161;DHT22;67232;50.096;8.716;2023-04-03T09:10:34;12.10;53.70
75161;DHT22;67232;50.096;8.716;2023-04-03T09:13:27;11.60;54.00
75161;DHT22;67232;50.096;8.716;2023-04-03T09:15:56;12.20;54.00
75161;DHT22;67232;50.096;8.716;2023-04-03T09:18:37;12.00;54.20
75161;DHT22;67232;50.096;8.716;2023-04-03T09:21:13;12.20;54.10
75161;DHT22;67232;50.096;8.716;2023-04-03T09:23:45;11.60;54.10
75161;DHT22;67232;50.096;8.716;2023-04-03T09:26:18;11.30;54.50
75161;DHT22;67232;50.096;8.716;2023-04-03T09:28:45;10.70;55.40
75161;DHT22;67232;50.096;8.716;2023-04-03T09:31:16;10.80;56.10
75161;DHT22;67232;50.096;8.716;2023-04-03T09:33:43;10.90;56.00
75161;DHT22;67232;50.096;8.716;2023-04-03T09:36:12;11.50;55.70
75161;DHT22;67232;50.096;8.716;2023-04-03T09:38:40;11.00;55.40
75161;DHT22;67232;50.096;8.716;2023-04-03T09:41:17;11.30;56.00
75161;DHT22;67232;50.096;8.716;2023-04-03T09:43:52;11.90;55.60
75161;DHT22;67232;50.096;8.716;2023-04-03T09:46:39;12.40;55.10
75161;DHT22;67232;50.096;8.716;2023-04-03T09:49:11;12.50;53.50
75161;DHT22;67232;50.096;8.716;2023-04-03T09:51:40;12.20;53.60
75161;DHT22;67232;50.096;8.716;2023-04-03T09:54:44;11.60;53.90
75161;DHT22;67232;50.096;8.716;2023-04-03T09:57:13;11.90;54.10
75161;DHT22;67232;50.096;8.716;2023-04-03T10:02:42;12.90;52.20
75161;DHT22;67232;50.096;8.716;2023-04-03T10:07:54;14.60;49.40
75161;DHT22;67232;50.096;8.716;2023-04-03T10:10:32;16.20;47.10
75161;DHT22;67232;50.096;8.716;2023-04-03T10:13:05;17.40;45.60
75161;DHT22;67232;50.096;8.716;2023-04-03T10:15:36;17.40;44.10
75161;DHT22;67232;50.096;8.716;2023-04-03T10:18:06;18.00;43.90
75161;DHT22;67232;50.096;8.716;2023-04-03T10:20:43;18.00;43.80
75161;DHT22;67232;50.096;8.716;2023-04-03T10:23:26;17.80;42.50
75161;DHT22;67232;50.096;8.716;2023-04-03T10:26:15;18.60;41.90
75161;DHT22;67232;50.096;8.716;2023-04-03T10:31:25;19.10;41.20
75161;DHT22;67232;50.096;8.716;2023-04-03T10:42:13;20.60;38.50
75161;DHT22;67232;50.096;8.716;2023-04-03T10:50:15;18.70;40.30
75161;DHT22;67232;50.096;8.716;2023-04-03T10:57:54;17.30;41.90
75161;DHT22;67232;50.096;8.716;2023-04-03T11:00:46;17.30;41.50
75161;DHT22;67232;50.096;8.716;2023-04-03T11:03:24;18.50;39.90
75161;DHT22;67232;50.096;8.716;2023-04-03T11:05:57;17.70;41.60
75161;DHT22;67232;50.096;8.716;2023-04-03T11:08:35;19.30;38.70
75161;DHT22;67232;50.096;8.716;2023-04-03T11:11:07;19.50;38.10
75161;DHT22;67232;50.096;8.716;2023-04-03T11:13:56;19.40;38.40
75161;DHT22;67232;50.096;8.716;2023-04-03T11:16:31;19.10;38.60
75161;DHT22;67232;50.096;8.716;2023-04-03T11:19:20;17.40;40.80
75161;DHT22;67232;50.096;8.716;2023-04-03T11:21:56;19.10;39.40
75161;DHT22;67232;50.096;8.716;2023-04-03T11:24:27;21.00;36.60
75161;DHT22;67232;50.096;8.716;2023-04-03T11:26:56;21.40;35.50
75161;DHT22;67232;50.096;8.716;2023-04-03T11:29:31;22.30;34.20
75161;DHT22;67232;50.096;8.716;2023-04-03T11:37:11;22.40;34.00
75161;DHT22;67232;50.096;8.716;2023-04-03T11:39:39;23.50;33.30
75161;DHT22;67232;50.096;8.716;2023-04-03T11:42:22;23.30;33.50
75161;DHT22;67232;50.096;8.716;2023-04-03T11:44:50;24.00;32.30
75161;DHT22;67232;50.096;8.716;2023-04-03T11:47:49;24.20;32.60
75161;DHT22;67232;50.096;8.716;2023-04-03T11:52:57;25.40;30.90
75161;DHT22;67232;50.096;8.716;2023-04-03T12:05:53;23.60;31.10
75161;DHT22;67232;50.096;8.716;2023-04-03T12:08:29;22.20;32.90
75161;DHT22;67232;50.096;8.716;2023-04-03T12:13:43;20.60;34.30
75161;DHT22;67232;50.096;8.716;2023-04-03T12:26:48;22.10;32.90
75161;DHT22;67232;50.096;8.716;2023-04-03T12:34:54;22.20;33.20
75161;DHT22;67232;50.096;8.716;2023-04-03T12:51:35;23.00;31.20
75161;DHT22;67232;50.096;8.716;2023-04-03T12:54:12;22.60;32.00
75161;DHT22;67232;50.096;8.716;2023-04-03T12:56:40;23.50;31.90
75161;DHT22;67232;50.096;8.716;2023-04-03T12:59:21;22.00;31.80
75161;DHT22;67232;50.096;8.716;2023-04-03T13:01:54;20.80;32.70
75161;DHT22;67232;50.096;8.716;2023-04-03T13:04:20;20.50;33.20
75161;DHT22;67232;50.096;8.716;2023-04-03T13:06:46;20.30;33.50
75161;DHT22;67232;50.096;8.716;2023-04-03T13:09:32;19.60;33.80
75161;DHT22;67232;50.096;8.716;2023-04-03T13:12:10;19.40;34.20
75161;DHT22;67232;50.096;8.716;2023-04-03T13:14:39;18.30;34.90
75161;DHT22;67232;50.096;8.716;2023-04-03T13:17:10;17.10;36.60
75161;DHT22;67232;50.096;8.716;2023-04-03T13:19:41;16.60;38.30
75161;DHT22;67232;50.096;8.716;2023-04-03T13:22:29;16.90;37.80
75161;DHT22;67232;50.096;8.716;2023-04-03T13:25:00;17.60;37.60
75161;DHT22;67232;50.096;8.716;2023-04-03T13:27:29;17.30;37.10
75161;DHT22;67232;50.096;8.716;2023-04-03T13:30:00;16.60;37.40
75161;DHT22;67232;50.096;8.716;2023-04-03T13:32:30;16.00;39.00
75161;DHT22;67232;50.096;8.716;2023-04-03T13:34:58;16.10;38.60
75161;DHT22;67232;50.096;8.716;2023-04-03T13:37:28;15.50;38.60
75161;DHT22;67232;50.096;8.716;2023-04-03T13:42:33;14.10;40.40
75161;DHT22;67232;50.096;8.716;2023-04-03T13:45:22;14.00;40.80
75161;DHT22;67232;50.096;8.716;2023-04-03T13:47:50;13.70;41.90
75161;DHT22;67232;50.096;8.716;2023-04-03T13:50:23;13.90;42.00
75161;DHT22;67232;50.096;8.716;2023-04-03T13:53:11;13.70;42.20
75161;DHT22;67232;50.096;8.716;2023-04-03T13:55:54;13.20;41.90
75161;DHT22;67232;50.096;8.716;2023-04-03T13:58:25;13.20;42.90
75161;DHT22;67232;50.096;8.716;2023-04-03T14:03:40;12.80;42.40
75161;DHT22;67232;50.096;8.716;2023-04-03T14:06:07;13.00;43.40
75161;DHT22;67232;50.096;8.716;2023-04-03T14:08:33;12.70;43.50
75161;DHT22;67232;50.096;8.716;2023-04-03T14:10:59;12.40;44.50
75161;DHT22;67232;50.096;8.716;2023-04-03T14:13:25;12.40;44.90
75161;DHT22;67232;50.096;8.716;2023-04-03T14:15:53;12.80;43.30
75161;DHT22;67232;50.096;8.716;2023-04-03T14:18:21;12.80;43.50
75161;DHT22;67232;50.096;8.716;2023-04-03T14:20:47;13.20;43.50
75161;DHT22;67232;50.096;8.716;2023-04-03T14:23:13;12.80;43.80
75161;DHT22;67232;50.096;8.716;2023-04-03T14:25:39;13.10;43.40
75161;DHT22;67232;50.096;8.716;2023-04-03T14:28:20;12.90;43.70
75161;DHT22;67232;50.096;8.716;2023-04-03T14:30:49;12.60;43.80
75161;DHT22;67232;50.096;8.716;2023-04-03T14:33:20;12.90;43.40
75161;DHT22;67232;50.096;8.716;2023-04-03T14:35:46;13.10;43.00
75161;DHT22;67232;50.096;8.716;2023-04-03T14:38:24;13.20;42.80
75161;DHT22;67232;50.096;8.716;2023-04-03T14:40:51;13.10;42.60
75161;DHT22;67232;50.096;8.716;2023-04-03T14:43:19;12.60;44.30
75161;DHT22;67232;50.096;8.716;2023-04-03T14:45:46;12.30;44.60
75161;DHT22;67232;50.096;8.716;2023-04-03T14:48:20;12.60;44.80
75161;DHT22;67232;50.096;8.716;2023-04-03T14:50:50;12.70;43.30
75161;DHT22;67232;50.096;8.716;2023-04-03T14:53:16;12.30;44.00
75161;DHT22;67232;50.096;8.716;2023-04-03T14:55:45;12.30;44.10
75161;DHT22;67232;50.096;8.716;2023-04-03T14:58:14;11.70;44.80
75161;DHT22;67232;50.096;8.716;2023-04-03T15:00:41;12.00;45.30
75161;DHT22;67232;50.096;8.716;2023-04-03T15:03:17;12.00;45.20
75161;DHT22;67232;50.096;8.716;2023-04-03T15:05:44;12.30;44.90
75161;DHT22;67232;50.096;8.716;2023-04-03T15:08:22;12.20;44.90
75161;DHT22;67232;50.096;8.716;2023-04-03T15:10:52;11.80;45.30
75161;DHT22;67232;50.096;8.716;2023-04-03T15:13:22;11.90;45.20
75161;DHT22;67232;50.096;8.716;2023-04-03T15:15:49;12.00;45.20
75161;DHT22;67232;50.096;8.716;2023-04-03T15:18:21;12.10;45.60
75161;DHT22;67232;50.096;8.716;2023-04-03T15:20:47;12.00;45.20
75161;DHT22;67232;50.096;8.716;2023-04-03T15:23:13;11.70;45.20
75161;DHT22;67232;50.096;8.716;2023-04-03T15:25:47;11.90;45.60
75161;DHT22;67232;50.096;8.716;2023-04-03T15:30:57;11.60;45.10
75161;DHT22;67232;50.096;8.716;2023-04-03T15:33:23;11.80;45.50
75161;DHT22;67232;50.096;8.716;2023-04-03T15:35:49;12.00;45.50
75161;DHT22;67232;50.096;8.716;2023-04-03T15:38:14;12.00;45.10
75161;DHT22;67232;50.096;8.716;2023-04-03T15:40:40;11.90;45.60
75161;DHT22;67232;50.096;8.716;2023-04-03T15:43:07;11.90;45.50
75161;DHT22;67232;50.096;8.716;2023-04-03T15:45:33;11.60;45.40
75161;DHT22;67232;50.096;8.716;2023-04-03T15:48:03;11.90;45.70
75161;DHT22;67232;50.096;8.716;2023-04-03T15:50:30;11.80;45.50
75161;DHT22;67232;50.096;8.716;2023-04-03T15:52:56;11.90;45.80
75161;DHT22;67232;50.096;8.716;2023-04-03T15:55:27;11.70;45.60
75161;DHT22;67232;50.096;8.716;2023-04-03T15:57:53;11.60;45.70
75161;DHT22;67232;50.096;8.716;2023-04-03T16:00:19;12.00;46.10
75161;DHT22;67232;50.096;8.716;2023-04-03T16:02:46;11.90;45.70
75161;DHT22;67232;50.096;8.716;2023-04-03T16:05:13;11.10;45.90
75161;DHT22;67232;50.096;8.716;2023-04-03T16:07:40;10.90;45.90
75161;DHT22;67232;50.096;8.716;2023-04-03T16:10:08;11.30;46.30
75161;DHT22;67232;50.096;8.716;2023-04-03T16:12:34;11.50;45.40
75161;DHT22;67232;50.096;8.716;2023-04-03T16:15:00;11.10;45.60
75161;DHT22;67232;50.096;8.716;2023-04-03T16:17:31;10.90;45.60
75161;DHT22;67232;50.096;8.716;2023-04-03T16:19:58;10.90;46.00
75161;DHT22;67232;50.096;8.716;2023-04-03T16:22:24;10.80;45.70
75161;DHT22;67232;50.096;8.716;2023-04-03T16:24:51;10.50;46.30
75161;DHT22;67232;50.096;8.716;2023-04-03T16:27:16;10.30;46.50
75161;DHT22;67232;50.096;8.716;2023-04-03T16:29:42;10.50;46.60
75161;DHT22;67232;50.096;8.716;2023-04-03T16:32:08;10.40;46.60
75161;DHT22;67232;50.096;8.716;2023-04-03T16:34:34;10.50;46.40
75161;DHT22;67232;50.096;8.716;2023-04-03T16:37:03;10.50;46.60
75161;DHT22;67232;50.096;8.716;2023-04-03T16:39:28;10.80;46.40
75161;DHT22;67232;50.096;8.716;2023-04-03T16:41:56;10.90;46.20
75161;DHT22;67232;50.096;8.716;2023-04-03T16:44:21;10.90;46.50
75161;DHT22;67232;50.096;8.716;2023-04-03T16:46:47;11.00;45.60
75161;DHT22;67232;50.096;8.716;2023-04-03T16:49:15;10.90;46.10
75161;DHT22;67232;50.096;8.716;2023-04-03T16:51:45;11.10;45.80
75161;DHT22;67232;50.096;8.716;2023-04-03T16:54:12;10.70;46.10
75161;DHT22;67232;50.096;8.716;2023-04-03T16:56:39;10.80;46.40
75161;DHT22;67232;50.096;8.716;2023-04-03T16:59:04;10.90;46.00
75161;DHT22;67232;50.096;8.716;2023-04-03T17:01:30;11.10;46.10
75161;DHT22;67232;50.096;8.716;2023-04-03T17:04:01;11.00;45.90
75161;DHT22;67232;50.096;8.716;2023-04-03T17:06:26;11.00;45.90
75161;DHT22;67232;50.096;8.716;2023-04-03T17:08:52;10.80;46.20
75161;DHT22;67232;50.096;8.716;2023-04-03T17:11:18;10.90;45.60
75161;DHT22;67232;50.096;8.716;2023-04-03T17:13:48;10.70;45.60
75161;DHT22;67232;50.096;8.716;2023-04-03T17:16:15;10.50;45.70
75161;DHT22;67232;50.096;8.716;2023-04-03T17:18:41;10.70;46.00
75161;DHT22;67232;50.096;8.716;2023-04-03T17:21:10;10.70;46.10
75161;DHT22;67232;50.096;8.716;2023-04-03T17:23:37;10.60;46.20
75161;DHT22;67232;50.096;8.716;2023-04-03T17:26:04;10.50;46.20
75161;DHT22;67232;50.096;8.716;2023-04-03T17:28:32;10.30;46.80
75161;DHT22;67232;50.096;8.716;2023-04-03T17:31:00;10.10;46.60
75161;DHT22;67232;50.096;8.716;2023-04-03T17:33:26;10.30;46.40
75161;DHT22;67232;50.096;8.716;2023-04-03T17:35:56;10.10;46.80
75161;DHT22;67232;50.096;8.716;2023-04-03T17:38:21;9.90;47.10
75161;DHT22;67232;50.096;8.716;2023-04-03T17:40:47;10.10;47.40